sensor_id;sensor_type;location;lat;lon;timestamp;pressure;altitude;pressure_sealevel;temperature;humidity
36520;BME280;40269;46.742;9.778;2022-12-29T00:00:20;85705.11;;;-4.34;42.16
36520;BME280;40269;46.742;9.778;2022-12-29T00:02:46;85710.38;;;-6.87;46.19
36520;BME280;40269;46.742;9.778;2022-12-29T00:05:13;85703.14;;;-4.73;42.82
36520;BME280;40269;46.742;9.778;2022-12-29T00:07:40;85703.55;;;-5.36;43.21
36520;BME280;40269;46.742;9.778;2022-12-29T00:10:08;85705.92;;;-6.19;44.47
36520;BME280;40269;46.742;9.778;2022-12-29T00:12:34;85702.52;;;-4.75;42.42
36520;BME280;40269;46.742;9.778;2022-12-29T00:15:01;85704.08;;;-5.34;43.51
36520;BME280;40269;46.742;9.778;2022-12-29T00:17:28;85709.89;;;-8.72;51.60
36520;BME280;40269;46.742;9.778;2022-12-29T00:19:56;85705.80;;;-6.87;47.46
36520;BME280;40269;46.742;9.778;2022-12-29T00:22:23;85700.31;;;-5.24;43.25
36520;BME280;40269;46.742;9.778;2022-12-29T00:24:50;85692.53;;;-3.75;41.30
36520;BME280;40269;46.742;9.778;2022-12-29T00:27:17;85701.22;;;-5.41;42.64
36520;BME280;40269;46.742;9.778;2022-12-29T00:29:44;85705.55;;;-4.34;41.12
36520;BME280;40269;46.742;9.778;2022-12-29T00:32:11;85703.34;;;-3.58;40.03
36520;BME280;40269;46.742;9.778;2022-12-29T00:34:38;85705.86;;;-6.48;44.67
36520;BME280;40269;46.742;9.778;2022-12-29T00:37:05;85705.64;;;-5.63;42.07
36520;BME280;40269;46.742;9.778;2022-12-29T00:39:32;85709.20;;;-6.54;45.60
36520;BME280;40269;46.742;9.778;2022-12-29T00:42:03;85705.64;;;-5.36;42.61
36520;BME280;40269;46.742;9.778;2022-12-29T00:44:30;85702.67;;;-4.14;40.26
36520;BME280;40269;46.742;9.778;2022-12-29T00:46:57;85706.64;;;-5.26;42.18
36520;BME280;40269;46.742;9.778;2022-12-29T00:49:24;85711.22;;;-4.77;42.10
36520;BME280;40269;46.742;9.778;2022-12-29T00:51:51;85714.28;;;-7.11;45.57
36520;BME280;40269;46.742;9.778;2022-12-29T00:54:19;85712.15;;;-5.86;43.88
36520;BME280;40269;46.742;9.778;2022-12-29T00:56:46;85712.67;;;-8.70;49.32
36520;BME280;40269;46.742;9.778;2022-12-29T00:59:13;85715.31;;;-7.53;48.01
36520;BME280;40269;46.742;9.778;2022-12-29T01:01:41;85708.45;;;-6.06;45.03
36520;BME280;40269;46.742;9.778;2022-12-29T01:04:09;85699.71;;;-6.54;45.37
36520;BME280;40269;46.742;9.778;2022-12-29T01:06:37;85695.59;;;-5.18;42.28
36520;BME280;40269;46.742;9.778;2022-12-29T01:09:06;85699.42;;;-8.30;49.19
36520;BME280;40269;46.742;9.778;2022-12-29T01:11:33;85702.48;;;-8.63;50.08
36520;BME280;40269;46.742;9.778;2022-12-29T01:14:00;85701.34;;;-8.42;50.00
36520;BME280;40269;46.742;9.778;2022-12-29T01:16:28;85700.82;;;-8.44;51.25
36520;BME280;40269;46.742;9.778;2022-12-29T01:18:55;85698.02;;;-8.27;48.84
36520;BME280;40269;46.742;9.778;2022-12-29T01:21:22;85699.77;;;-5.79;44.63
36520;BME280;40269;46.742;9.778;2022-12-29T01:23:49;85690.32;;;-4.83;42.07
36520;BME280;40269;46.742;9.778;2022-12-29T01:26:17;85691.20;;;-4.41;41.12
36520;BME280;40269;46.742;9.778;2022-12-29T01:28:45;85693.53;;;-7.23;45.94
36520;BME280;40269;46.742;9.778;2022-12-29T01:31:13;85695.22;;;-7.26;46.83
36520;BME280;40269;46.742;9.778;2022-12-29T01:33:41;85686.73;;;-6.56;46.04
36520;BME280;40269;46.742;9.778;2022-12-29T01:36:12;85679.18;;;-4.73;42.19
36520;BME280;40269;46.742;9.778;2022-12-29T01:38:39;85690.15;;;-4.44;40.96
36520;BME280;40269;46.742;9.778;2022-12-29T01:41:08;85685.81;;;-5.42;42.07
36520;BME280;40269;46.742;9.778;2022-12-29T01:43:41;85686.46;;;-7.03;44.83
36520;BME280;40269;46.742;9.778;2022-12-29T01:46:16;85686.96;;;-6.05;43.17
36520;BME280;40269;46.742;9.778;2022-12-29T01:48:46;85686.44;;;-6.02;43.60
36520;BME280;40269;46.742;9.778;2022-12-29T01:51:14;85684.72;;;-7.90;47.02
36520;BME280;40269;46.742;9.778;2022-12-29T01:53:43;85676.08;;;-5.83;44.32
36520;BME280;40269;46.742;9.778;2022-12-29T01:56:13;85677.48;;;-7.04;45.65
36520;BME280;40269;46.742;9.778;2022-12-29T01:58:44;85674.44;;;-7.95;48.67
36520;BME280;40269;46.742;9.778;2022-12-29T02:01:13;85673.36;;;-6.61;45.96
36520;BME280;40269;46.742;9.778;2022-12-29T02:03:41;85664.77;;;-5.75;43.92
36520;BME280;40269;46.742;9.778;2022-12-29T02:06:12;85662.56;;;-5.74;43.54
36520;BME280;40269;46.742;9.778;2022-12-29T02:08:43;85662.17;;;-6.86;45.42
36520;BME280;40269;46.742;9.778;2022-12-29T02:11:13;85660.56;;;-8.45;49.26
36520;BME280;40269;46.742;9.778;2022-12-29T02:13:41;85658.37;;;-9.23;51.39
36520;BME280;40269;46.742;9.778;2022-12-29T02:16:20;85654.36;;;-7.47;47.75
36520;BME280;40269;46.742;9.778;2022-12-29T02:18:59;85654.06;;;-7.06;45.71
36520;BME280;40269;46.742;9.778;2022-12-29T02:21:56;85656.00;;;-7.59;46.07
36520;BME280;40269;46.742;9.778;2022-12-29T02:25:52;85656.23;;;-7.55;47.49
36520;BME280;40269;46.742;9.778;2022-12-29T02:28:45;85655.19;;;-6.81;46.13
36520;BME280;40269;46.742;9.778;2022-12-29T02:31:20;85649.16;;;-5.28;42.11
36520;BME280;40269;46.742;9.778;2022-12-29T02:34:00;85650.94;;;-5.11;41.95
36520;BME280;40269;46.742;9.778;2022-12-29T02:36:39;85648.97;;;-4.43;40.17
36520;BME280;40269;46.742;9.778;2022-12-29T02:39:15;85645.91;;;-4.35;39.81
36520;BME280;40269;46.742;9.778;2022-12-29T02:41:55;85644.39;;;-4.51;40.07
36520;BME280;40269;46.742;9.778;2022-12-29T02:44:27;85646.59;;;-4.69;40.37
36520;BME280;40269;46.742;9.778;2022-12-29T02:47:01;85643.96;;;-5.40;42.37
36520;BME280;40269;46.742;9.778;2022-12-29T02:49:36;85647.87;;;-4.92;40.53
36520;BME280;40269;46.742;9.778;2022-12-29T02:52:07;85657.30;;;-6.14;43.06
36520;BME280;40269;46.742;9.778;2022-12-29T02:54:37;85657.85;;;-7.51;44.81
36520;BME280;40269;46.742;9.778;2022-12-29T02:57:08;85656.48;;;-8.07;48.59
36520;BME280;40269;46.742;9.778;2022-12-29T02:59:35;85651.39;;;-6.35;44.75
36520;BME280;40269;46.742;9.778;2022-12-29T03:02:17;85651.08;;;-7.92;47.25
36520;BME280;40269;46.742;9.778;2022-12-29T03:05:07;85650.56;;;-9.17;51.38
36520;BME280;40269;46.742;9.778;2022-12-29T03:07:44;85651.19;;;-7.63;48.40
36520;BME280;40269;46.742;9.778;2022-12-29T03:10:23;85652.07;;;-7.71;47.47
36520;BME280;40269;46.742;9.778;2022-12-29T03:13:06;85645.38;;;-6.80;45.16
36520;BME280;40269;46.742;9.778;2022-12-29T03:15:46;85641.65;;;-6.21;43.71
36520;BME280;40269;46.742;9.778;2022-12-29T03:18:22;85643.71;;;-8.10;48.45
36520;BME280;40269;46.742;9.778;2022-12-29T03:20:53;85640.90;;;-6.66;45.21
36520;BME280;40269;46.742;9.778;2022-12-29T03:23:24;85636.57;;;-7.40;46.21
36520;BME280;40269;46.742;9.778;2022-12-29T03:25:55;85635.59;;;-10.39;54.27
36520;BME280;40269;46.742;9.778;2022-12-29T03:28:25;85639.98;;;-9.62;52.09
36520;BME280;40269;46.742;9.778;2022-12-29T03:30:55;85643.00;;;-8.63;52.45
36520;BME280;40269;46.742;9.778;2022-12-29T03:33:27;85643.58;;;-10.51;56.25
36520;BME280;40269;46.742;9.778;2022-12-29T03:35:59;85640.49;;;-8.27;50.92
36520;BME280;40269;46.742;9.778;2022-12-29T03:38:33;85641.16;;;-8.87;52.21
36520;BME280;40269;46.742;9.778;2022-12-29T03:41:04;85641.84;;;-6.84;47.35
36520;BME280;40269;46.742;9.778;2022-12-29T03:43:33;85644.23;;;-6.99;45.86
36520;BME280;40269;46.742;9.778;2022-12-29T03:46:01;85642.15;;;-6.22;45.23
36520;BME280;40269;46.742;9.778;2022-12-29T03:48:28;85644.41;;;-6.63;46.21
36520;BME280;40269;46.742;9.778;2022-12-29T03:50:55;85645.20;;;-4.90;42.29
36520;BME280;40269;46.742;9.778;2022-12-29T03:53:22;85648.87;;;-5.72;43.21
36520;BME280;40269;46.742;9.778;2022-12-29T03:55:48;85653.44;;;-5.08;42.24
36520;BME280;40269;46.742;9.778;2022-12-29T03:58:15;85648.35;;;-4.74;41.64
36520;BME280;40269;46.742;9.778;2022-12-29T04:00:42;85653.23;;;-5.03;42.67
36520;BME280;40269;46.742;9.778;2022-12-29T04:03:09;85651.46;;;-5.46;42.93
36520;BME280;40269;46.742;9.778;2022-12-29T04:05:36;85654.00;;;-7.06;46.19
36520;BME280;40269;46.742;9.778;2022-12-29T04:08:03;85655.57;;;-7.50;47.89
36520;BME280;40269;46.742;9.778;2022-12-29T04:10:30;85656.02;;;-6.66;46.15
36520;BME280;40269;46.742;9.778;2022-12-29T04:12:57;85648.10;;;-5.78;44.11
36520;BME280;40269;46.742;9.778;2022-12-29T04:15:24;85644.31;;;-5.79;43.14
36520;BME280;40269;46.742;9.778;2022-12-29T04:17:51;85643.87;;;-4.30;41.25
36520;BME280;40269;46.742;9.778;2022-12-29T04:20:18;85645.29;;;-3.83;40.06
36520;BME280;40269;46.742;9.778;2022-12-29T04:22:45;85639.35;;;-4.08;39.91
36520;BME280;40269;46.742;9.778;2022-12-29T04:25:12;85635.67;;;-3.82;40.21
36520;BME280;40269;46.742;9.778;2022-12-29T04:27:39;85631.60;;;-3.05;38.96
36520;BME280;40269;46.742;9.778;2022-12-29T04:30:07;85627.83;;;-3.15;38.66
36520;BME280;40269;46.742;9.778;2022-12-29T04:32:34;85625.51;;;-5.19;42.38
36520;BME280;40269;46.742;9.778;2022-12-29T04:35:01;85623.75;;;-3.49;39.51
36520;BME280;40269;46.742;9.778;2022-12-29T04:37:28;85618.62;;;-4.42;40.32
36520;BME280;40269;46.742;9.778;2022-12-29T04:39:55;85619.79;;;-2.66;38.19
36520;BME280;40269;46.742;9.778;2022-12-29T04:42:22;85614.59;;;-4.58;40.78
36520;BME280;40269;46.742;9.778;2022-12-29T04:44:49;85611.62;;;-4.00;40.47
36520;BME280;40269;46.742;9.778;2022-12-29T04:47:15;85610.99;;;-3.85;40.44
36520;BME280;40269;46.742;9.778;2022-12-29T04:49:42;85608.89;;;-2.85;38.72
36520;BME280;40269;46.742;9.778;2022-12-29T04:52:09;85609.35;;;-3.13;38.68
36520;BME280;40269;46.742;9.778;2022-12-29T04:54:36;85607.76;;;-6.05;44.36
36520;BME280;40269;46.742;9.778;2022-12-29T04:57:03;85609.52;;;-4.65;41.76
36520;BME280;40269;46.742;9.778;2022-12-29T04:59:30;85608.76;;;-3.38;39.99
36520;BME280;40269;46.742;9.778;2022-12-29T05:01:57;85616.90;;;-5.53;44.10
36520;BME280;40269;46.742;9.778;2022-12-29T05:04:24;85614.33;;;-3.68;39.87
36520;BME280;40269;46.742;9.778;2022-12-29T05:06:51;85611.79;;;-6.39;44.53
36520;BME280;40269;46.742;9.778;2022-12-29T05:09:17;85612.22;;;-6.79;46.38
36520;BME280;40269;46.742;9.778;2022-12-29T05:11:45;85607.76;;;-3.63;40.87
36520;BME280;40269;46.742;9.778;2022-12-29T05:14:12;85620.92;;;-8.02;48.95
36520;BME280;40269;46.742;9.778;2022-12-29T05:16:39;85617.32;;;-6.29;46.07
36520;BME280;40269;46.742;9.778;2022-12-29T05:19:06;85616.38;;;-4.73;42.94
36520;BME280;40269;46.742;9.778;2022-12-29T05:21:33;85617.82;;;-4.10;40.90
36520;BME280;40269;46.742;9.778;2022-12-29T05:23:59;85623.22;;;-7.71;47.83
36520;BME280;40269;46.742;9.778;2022-12-29T05:26:27;85614.18;;;-6.37;46.54
36520;BME280;40269;46.742;9.778;2022-12-29T05:28:53;85615.29;;;-5.44;44.52
36520;BME280;40269;46.742;9.778;2022-12-29T05:31:20;85622.50;;;-6.94;47.43
36520;BME280;40269;46.742;9.778;2022-12-29T05:33:47;85616.50;;;-4.32;41.94
36520;BME280;40269;46.742;9.778;2022-12-29T05:36:14;85613.20;;;-5.76;44.12
36520;BME280;40269;46.742;9.778;2022-12-29T05:38:41;85627.84;;;-6.81;46.54
36520;BME280;40269;46.742;9.778;2022-12-29T05:41:08;85634.83;;;-7.90;48.08
36520;BME280;40269;46.742;9.778;2022-12-29T05:43:35;85638.65;;;-5.80;44.73
36520;BME280;40269;46.742;9.778;2022-12-29T05:46:02;85638.06;;;-7.22;47.02
36520;BME280;40269;46.742;9.778;2022-12-29T05:48:30;85633.51;;;-5.66;43.84
36520;BME280;40269;46.742;9.778;2022-12-29T05:50:57;85642.04;;;-8.44;50.93
36520;BME280;40269;46.742;9.778;2022-12-29T05:53:24;85641.11;;;-6.13;45.78
36520;BME280;40269;46.742;9.778;2022-12-29T05:55:51;85650.32;;;-5.05;43.37
36520;BME280;40269;46.742;9.778;2022-12-29T05:58:18;85659.83;;;-5.82;44.57
36520;BME280;40269;46.742;9.778;2022-12-29T06:00:45;85664.60;;;-6.32;45.16
36520;BME280;40269;46.742;9.778;2022-12-29T06:03:12;85670.56;;;-5.88;44.22
36520;BME280;40269;46.742;9.778;2022-12-29T06:05:38;85669.81;;;-4.41;41.48
36520;BME280;40269;46.742;9.778;2022-12-29T06:08:05;85663.11;;;-4.29;41.43
36520;BME280;40269;46.742;9.778;2022-12-29T06:10:32;85669.55;;;-5.41;43.63
36520;BME280;40269;46.742;9.778;2022-12-29T06:12:59;85672.26;;;-6.78;46.12
36520;BME280;40269;46.742;9.778;2022-12-29T06:15:26;85669.77;;;-7.00;47.22
36520;BME280;40269;46.742;9.778;2022-12-29T06:17:53;85664.05;;;-3.96;41.48
36520;BME280;40269;46.742;9.778;2022-12-29T06:20:20;85672.48;;;-6.78;46.75
36520;BME280;40269;46.742;9.778;2022-12-29T06:22:47;85677.40;;;-6.58;47.66
36520;BME280;40269;46.742;9.778;2022-12-29T06:25:14;85674.64;;;-8.72;52.56
36520;BME280;40269;46.742;9.778;2022-12-29T06:27:42;85674.93;;;-9.47;55.39
36520;BME280;40269;46.742;9.778;2022-12-29T06:30:11;85675.61;;;-7.91;51.61
36520;BME280;40269;46.742;9.778;2022-12-29T06:32:41;85673.98;;;-5.82;46.14
36520;BME280;40269;46.742;9.778;2022-12-29T06:35:09;85671.02;;;-4.81;44.15
36520;BME280;40269;46.742;9.778;2022-12-29T06:37:36;85674.49;;;-6.65;47.41
36520;BME280;40269;46.742;9.778;2022-12-29T06:40:03;85670.00;;;-4.30;42.16
36520;BME280;40269;46.742;9.778;2022-12-29T06:42:30;85666.21;;;-5.04;43.80
36520;BME280;40269;46.742;9.778;2022-12-29T06:44:57;85661.79;;;-3.94;41.96
36520;BME280;40269;46.742;9.778;2022-12-29T06:47:24;85668.74;;;-3.63;41.71
36520;BME280;40269;46.742;9.778;2022-12-29T06:49:50;85672.89;;;-3.02;40.58
36520;BME280;40269;46.742;9.778;2022-12-29T06:52:17;85674.39;;;-4.86;43.36
36520;BME280;40269;46.742;9.778;2022-12-29T06:54:45;85670.95;;;-2.77;40.05
36520;BME280;40269;46.742;9.778;2022-12-29T06:57:12;85675.43;;;-2.04;38.29
36520;BME280;40269;46.742;9.778;2022-12-29T06:59:39;85674.52;;;-1.78;38.20
36520;BME280;40269;46.742;9.778;2022-12-29T07:02:06;85672.17;;;-2.41;39.41
36520;BME280;40269;46.742;9.778;2022-12-29T07:04:33;85670.48;;;-2.87;39.99
36520;BME280;40269;46.742;9.778;2022-12-29T07:07:01;85668.15;;;-2.27;38.61
36520;BME280;40269;46.742;9.778;2022-12-29T07:09:28;85662.55;;;-2.08;39.26
36520;BME280;40269;46.742;9.778;2022-12-29T07:11:55;85659.74;;;-3.51;41.64
36520;BME280;40269;46.742;9.778;2022-12-29T07:14:21;85661.18;;;-3.23;41.52
36520;BME280;40269;46.742;9.778;2022-12-29T07:16:48;85660.37;;;-2.25;39.00
36520;BME280;40269;46.742;9.778;2022-12-29T07:19:15;85656.10;;;-5.55;46.11
36520;BME280;40269;46.742;9.778;2022-12-29T07:21:42;85653.74;;;-3.53;42.25
36520;BME280;40269;46.742;9.778;2022-12-29T07:24:09;85650.65;;;-1.98;38.50
36520;BME280;40269;46.742;9.778;2022-12-29T07:26:36;85649.91;;;-1.85;38.16
36520;BME280;40269;46.742;9.778;2022-12-29T07:29:04;85648.09;;;-1.31;36.77
36520;BME280;40269;46.742;9.778;2022-12-29T07:31:31;85646.74;;;-1.64;37.69
36520;BME280;40269;46.742;9.778;2022-12-29T07:33:58;85643.96;;;-1.07;37.00
36520;BME280;40269;46.742;9.778;2022-12-29T07:36:24;85642.05;;;-2.26;38.50
36520;BME280;40269;46.742;9.778;2022-12-29T07:38:51;85643.53;;;-2.11;37.76
36520;BME280;40269;46.742;9.778;2022-12-29T07:41:18;85641.03;;;-3.20;40.22
36520;BME280;40269;46.742;9.778;2022-12-29T07:43:47;85639.87;;;-3.50;42.08
36520;BME280;40269;46.742;9.778;2022-12-29T07:46:13;85642.32;;;-3.82;41.94
36520;BME280;40269;46.742;9.778;2022-12-29T07:48:40;85639.09;;;-2.92;40.33
36520;BME280;40269;46.742;9.778;2022-12-29T07:51:07;85637.01;;;-2.41;39.92
36520;BME280;40269;46.742;9.778;2022-12-29T07:53:34;85642.43;;;-3.69;41.51
36520;BME280;40269;46.742;9.778;2022-12-29T07:56:01;85640.50;;;-5.91;46.12
36520;BME280;40269;46.742;9.778;2022-12-29T07:58:28;85635.47;;;-2.57;40.57
36520;BME280;40269;46.742;9.778;2022-12-29T08:00:55;85633.29;;;-2.45;40.02
36520;BME280;40269;46.742;9.778;2022-12-29T08:03:23;85632.14;;;-3.65;42.72
36520;BME280;40269;46.742;9.778;2022-12-29T08:05:50;85636.06;;;-5.87;47.63
36520;BME280;40269;46.742;9.778;2022-12-29T08:08:17;85635.88;;;-4.27;46.14
36520;BME280;40269;46.742;9.778;2022-12-29T08:10:44;85627.69;;;-3.32;42.82
36520;BME280;40269;46.742;9.778;2022-12-29T08:13:11;85629.11;;;-3.26;43.40
36520;BME280;40269;46.742;9.778;2022-12-29T08:15:38;85631.10;;;-2.06;40.84
36520;BME280;40269;46.742;9.778;2022-12-29T08:18:05;85627.01;;;-3.50;42.61
36520;BME280;40269;46.742;9.778;2022-12-29T08:20:32;85629.00;;;-1.30;39.59
36520;BME280;40269;46.742;9.778;2022-12-29T08:22:58;85626.26;;;-2.94;41.81
36520;BME280;40269;46.742;9.778;2022-12-29T08:25:25;85617.89;;;-1.84;40.37
36520;BME280;40269;46.742;9.778;2022-12-29T08:27:52;85623.57;;;-1.71;40.33
36520;BME280;40269;46.742;9.778;2022-12-29T08:30:19;85612.49;;;-0.84;38.23
36520;BME280;40269;46.742;9.778;2022-12-29T08:32:46;85618.96;;;-1.76;41.05
36520;BME280;40269;46.742;9.778;2022-12-29T08:35:13;85618.68;;;-1.70;40.82
36520;BME280;40269;46.742;9.778;2022-12-29T08:37:39;85617.36;;;-3.27;43.09
36520;BME280;40269;46.742;9.778;2022-12-29T08:40:07;85615.90;;;-2.77;42.55
36520;BME280;40269;46.742;9.778;2022-12-29T08:42:35;85615.14;;;-2.79;42.48
36520;BME280;40269;46.742;9.778;2022-12-29T08:45:02;85617.59;;;-3.41;43.77
36520;BME280;40269;46.742;9.778;2022-12-29T08:47:29;85622.92;;;-2.35;41.48
36520;BME280;40269;46.742;9.778;2022-12-29T08:49:56;85615.38;;;-0.64;38.75
36520;BME280;40269;46.742;9.778;2022-12-29T08:52:23;85621.35;;;-4.33;44.51
36520;BME280;40269;46.742;9.778;2022-12-29T08:54:50;85623.83;;;-2.70;42.18
36520;BME280;40269;46.742;9.778;2022-12-29T08:57:16;85623.14;;;-1.24;39.74
36520;BME280;40269;46.742;9.778;2022-12-29T08:59:43;85625.73;;;-2.71;42.21
36520;BME280;40269;46.742;9.778;2022-12-29T09:02:11;85624.87;;;-1.89;41.27
36520;BME280;40269;46.742;9.778;2022-12-29T09:04:39;85627.06;;;-1.52;40.14
36520;BME280;40269;46.742;9.778;2022-12-29T09:07:05;85622.21;;;-0.05;38.23
36520;BME280;40269;46.742;9.778;2022-12-29T09:09:33;85625.45;;;-0.37;37.94
36520;BME280;40269;46.742;9.778;2022-12-29T09:12:01;85624.52;;;0.59;37.74
36520;BME280;40269;46.742;9.778;2022-12-29T09:14:27;85628.54;;;1.44;36.39
36520;BME280;40269;46.742;9.778;2022-12-29T09:16:54;85631.86;;;1.88;35.67
36520;BME280;40269;46.742;9.778;2022-12-29T09:19:21;85641.15;;;-2.38;41.54
36520;BME280;40269;46.742;9.778;2022-12-29T09:21:48;85645.50;;;-1.59;41.67
36520;BME280;40269;46.742;9.778;2022-12-29T09:24:14;85641.11;;;0.22;39.59
36520;BME280;40269;46.742;9.778;2022-12-29T09:26:41;85644.88;;;1.49;37.04
36520;BME280;40269;46.742;9.778;2022-12-29T09:29:08;85646.63;;;1.70;36.82
36520;BME280;40269;46.742;9.778;2022-12-29T09:31:35;85638.03;;;2.01;37.24
36520;BME280;40269;46.742;9.778;2022-12-29T09:34:02;85636.43;;;1.22;38.38
36520;BME280;40269;46.742;9.778;2022-12-29T09:36:29;85634.63;;;1.20;39.28
36520;BME280;40269;46.742;9.778;2022-12-29T09:38:56;85632.91;;;2.39;35.68
36520;BME280;40269;46.742;9.778;2022-12-29T09:41:27;85633.83;;;-0.91;41.62
36520;BME280;40269;46.742;9.778;2022-12-29T09:44:04;85640.68;;;-2.28;44.31
36520;BME280;40269;46.742;9.778;2022-12-29T09:46:35;85633.78;;;-0.90;42.60
36520;BME280;40269;46.742;9.778;2022-12-29T09:49:11;85636.45;;;-0.01;42.53
36520;BME280;40269;46.742;9.778;2022-12-29T09:51:43;85630.11;;;2.29;36.61
36520;BME280;40269;46.742;9.778;2022-12-29T09:54:25;85631.27;;;2.31;35.85
36520;BME280;40269;46.742;9.778;2022-12-29T09:56:53;85633.34;;;1.52;38.45
36520;BME280;40269;46.742;9.778;2022-12-29T09:59:26;85628.50;;;2.41;36.00
36520;BME280;40269;46.742;9.778;2022-12-29T10:01:59;85629.90;;;2.15;36.06
36520;BME280;40269;46.742;9.778;2022-12-29T10:04:31;85634.99;;;0.31;41.45
36520;BME280;40269;46.742;9.778;2022-12-29T10:07:04;85638.94;;;2.64;36.68
36520;BME280;40269;46.742;9.778;2022-12-29T10:09:43;85635.18;;;3.01;36.38
36520;BME280;40269;46.742;9.778;2022-12-29T10:12:24;85630.26;;;2.53;37.13
36520;BME280;40269;46.742;9.778;2022-12-29T10:15:01;85630.99;;;2.91;35.98
36520;BME280;40269;46.742;9.778;2022-12-29T10:17:36;85625.24;;;4.28;33.89
36520;BME280;40269;46.742;9.778;2022-12-29T10:20:47;85628.37;;;3.05;33.26
36520;BME280;40269;46.742;9.778;2022-12-29T10:23:25;85627.54;;;0.01;39.64
36520;BME280;40269;46.742;9.778;2022-12-29T10:25:55;85626.42;;;2.59;36.98
36520;BME280;40269;46.742;9.778;2022-12-29T10:28:24;85623.89;;;3.96;35.54
36520;BME280;40269;46.742;9.778;2022-12-29T10:30:58;85615.68;;;4.28;33.29
36520;BME280;40269;46.742;9.778;2022-12-29T10:33:34;85616.87;;;2.94;35.50
36520;BME280;40269;46.742;9.778;2022-12-29T10:36:12;85621.65;;;2.56;36.94
36520;BME280;40269;46.742;9.778;2022-12-29T10:38:47;85614.90;;;4.37;34.19
36520;BME280;40269;46.742;9.778;2022-12-29T10:41:20;85616.59;;;2.73;36.44
36520;BME280;40269;46.742;9.778;2022-12-29T10:43:50;85614.43;;;3.70;34.82
36520;BME280;40269;46.742;9.778;2022-12-29T10:46:21;85618.72;;;3.39;35.11
36520;BME280;40269;46.742;9.778;2022-12-29T10:48:49;85613.28;;;4.78;34.34
36520;BME280;40269;46.742;9.778;2022-12-29T10:51:21;85618.07;;;2.57;37.25
36520;BME280;40269;46.742;9.778;2022-12-29T10:53:51;85611.92;;;4.11;35.33
36520;BME280;40269;46.742;9.778;2022-12-29T10:56:27;85611.61;;;5.44;32.83
36520;BME280;40269;46.742;9.778;2022-12-29T10:58:56;85607.24;;;4.28;33.36
36520;BME280;40269;46.742;9.778;2022-12-29T11:01:32;85614.71;;;3.15;36.18
36520;BME280;40269;46.742;9.778;2022-12-29T11:04:07;85610.15;;;4.23;33.66
36520;BME280;40269;46.742;9.778;2022-12-29T11:06:44;85611.40;;;5.35;32.38
36520;BME280;40269;46.742;9.778;2022-12-29T11:09:15;85610.18;;;5.24;32.38
36520;BME280;40269;46.742;9.778;2022-12-29T11:11:43;85606.81;;;6.55;30.29
36520;BME280;40269;46.742;9.778;2022-12-29T11:14:13;85604.48;;;5.52;31.99
36520;BME280;40269;46.742;9.778;2022-12-29T11:16:40;85599.55;;;5.77;31.64
36520;BME280;40269;46.742;9.778;2022-12-29T11:19:20;85599.77;;;5.53;34.83
36520;BME280;40269;46.742;9.778;2022-12-29T11:21:47;85598.81;;;5.69;32.10
36520;BME280;40269;46.742;9.778;2022-12-29T11:24:21;85597.69;;;5.17;33.72
36520;BME280;40269;46.742;9.778;2022-12-29T11:26:50;85594.83;;;5.40;32.93
36520;BME280;40269;46.742;9.778;2022-12-29T11:29:21;85589.88;;;5.14;33.35
36520;BME280;40269;46.742;9.778;2022-12-29T11:31:50;85592.46;;;6.98;30.64
36520;BME280;40269;46.742;9.778;2022-12-29T11:34:19;85590.58;;;7.50;29.49
36520;BME280;40269;46.742;9.778;2022-12-29T11:36:48;85590.48;;;7.27;30.23
36520;BME280;40269;46.742;9.778;2022-12-29T11:39:34;85586.24;;;7.24;30.17
36520;BME280;40269;46.742;9.778;2022-12-29T11:42:03;85580.91;;;7.44;28.77
36520;BME280;40269;46.742;9.778;2022-12-29T11:44:36;85580.40;;;8.24;29.42
36520;BME280;40269;46.742;9.778;2022-12-29T11:47:05;85577.21;;;10.37;25.64
36520;BME280;40269;46.742;9.778;2022-12-29T11:49:35;85570.82;;;9.93;26.05
36520;BME280;40269;46.742;9.778;2022-12-29T11:52:03;85566.94;;;9.87;25.26
36520;BME280;40269;46.742;9.778;2022-12-29T11:54:33;85563.78;;;9.98;25.51
36520;BME280;40269;46.742;9.778;2022-12-29T11:57:10;85562.83;;;10.55;24.41
36520;BME280;40269;46.742;9.778;2022-12-29T11:59:42;85559.11;;;11.63;24.56
36520;BME280;40269;46.742;9.778;2022-12-29T12:02:24;85556.49;;;12.45;21.72
36520;BME280;40269;46.742;9.778;2022-12-29T12:04:59;85545.12;;;11.09;23.47
36520;BME280;40269;46.742;9.778;2022-12-29T12:07:37;85539.90;;;10.87;23.29
36520;BME280;40269;46.742;9.778;2022-12-29T12:10:12;85537.87;;;9.81;25.75
36520;BME280;40269;46.742;9.778;2022-12-29T12:12:47;85532.87;;;10.55;23.08
36520;BME280;40269;46.742;9.778;2022-12-29T12:15:19;85531.17;;;9.11;27.45
36520;BME280;40269;46.742;9.778;2022-12-29T12:17:53;85529.92;;;4.81;29.09
36520;BME280;40269;46.742;9.778;2022-12-29T12:20:27;85525.44;;;10.44;26.40
36520;BME280;40269;46.742;9.778;2022-12-29T12:23:06;85524.70;;;11.99;24.30
36520;BME280;40269;46.742;9.778;2022-12-29T12:25:37;85521.49;;;8.07;26.48
36520;BME280;40269;46.742;9.778;2022-12-29T12:28:10;85521.55;;;9.67;26.98
36520;BME280;40269;46.742;9.778;2022-12-29T12:30:43;85518.54;;;8.23;26.03
36520;BME280;40269;46.742;9.778;2022-12-29T12:33:17;85518.18;;;12.07;26.29
36520;BME280;40269;46.742;9.778;2022-12-29T12:35:51;85516.39;;;14.74;23.48
36520;BME280;40269;46.742;9.778;2022-12-29T12:38:28;85515.44;;;15.92;20.15
36520;BME280;40269;46.742;9.778;2022-12-29T12:41:06;85515.90;;;16.76;18.45
36520;BME280;40269;46.742;9.778;2022-12-29T12:43:39;85514.40;;;9.68;23.91
36520;BME280;40269;46.742;9.778;2022-12-29T12:48:31;85508.05;;;15.35;17.93
36520;BME280;40269;46.742;9.778;2022-12-29T12:51:10;85504.92;;;8.63;23.53
36520;BME280;40269;46.742;9.778;2022-12-29T12:53:48;85500.82;;;14.22;19.93
36520;BME280;40269;46.742;9.778;2022-12-29T12:56:34;85497.51;;;15.09;20.89
36520;BME280;40269;46.742;9.778;2022-12-29T12:59:13;85494.91;;;16.69;19.08
36520;BME280;40269;46.742;9.778;2022-12-29T13:01:51;85495.17;;;16.13;19.36
36520;BME280;40269;46.742;9.778;2022-12-29T13:04:34;85489.48;;;17.28;16.99
36520;BME280;40269;46.742;9.778;2022-12-29T13:07:14;85486.31;;;15.87;17.38
36520;BME280;40269;46.742;9.778;2022-12-29T13:09:56;85481.78;;;13.44;20.23
36520;BME280;40269;46.742;9.778;2022-12-29T13:12:34;85480.24;;;13.24;20.63
36520;BME280;40269;46.742;9.778;2022-12-29T13:15:12;85472.03;;;9.80;25.87
36520;BME280;40269;46.742;9.778;2022-12-29T13:17:46;85469.64;;;10.18;23.35
36520;BME280;40269;46.742;9.778;2022-12-29T13:20:24;85467.19;;;11.65;23.89